LiveATC.Net - Listen to live air traffic control over the Internet!


ICAO: MMQT  IATA: QRO   Airport: Queretaro Intercontinental Airport
City: Queretaro
Country: Mexico   Continent: North America
MMQT METAR Weather: MMQT 232255Z 10010KT 10SM BKN025 22/12 A3026 RMK 8/400
MMQT Flight Activity (FlightAware)

MMQT Tower/App
Feed Status: UP   Listeners: 0
Listen in your browser - HTML5 player (in browser, HTML5)
Click here to listen with your own player (launches your MP3 player)
Archive Access: MMQT Tower/App
FacilityFrequency
Queretaro Approach127.200
Queretaro Tower118.950

NOTICE

Unauthorized use prohibited. See LiveATC.net Terms of Service


Airport/ARTCC Code
Frequency Search
(e.g., 124.400, 128.75)
Site-wide search
 


Browse Feeds
Top 50 Feeds
HF Oceanic Feeds
Coverage Map
Bad Weather Areas

LiveATC FAQ
Offer LiveATC feed
Contact LiveATC.net
Press Inquiries

LiveATC on iPhone
LiveATC on Android

Windows Phone
Windows 8/10

LiveATC Mobile
(Mobile browser)

ATC Audio Archives
Interesting Recordings

LiveATC Forums


Home Page
About LiveATC.net
Make a Donation
Terms of Use
Privacy Policy

Canadian Air Freqs

AIRMETs/SIGMETs

FAA Airport Status
NAS Status
Arrival Demand


Server Software By:
Icecast.org
Liquidsoap